SEKCJA WYDRUKÓW, pokaż »

METAR EPBY 250700Z 12010G22KT 080V150 CAVOK 25/09 Q1013=

METAR EPGD 250700Z 14009KT CAVOK 23/12 Q1015 =

METAR EPKK 250700Z VRB03KT CAVOK 23/13 Q1013 =

METAR EPKT 250700Z 10005KT 070V130 CAVOK 23/14 Q1013 =

METAR EPLB 250700Z 08006KT CAVOK 25/14 Q1016 =

METAR EPLL 250700Z 12007KT 070V160 CAVOK 24/13 Q1013 =

METAR EPML 250700Z AUTO 09008KT 060V130 9999 NCD 25/12 Q1014=

METAR EPMO 250700Z 09006KT 040V120 CAVOK 25/14 Q1015 =

METAR EPPO 250700Z 11007KT CAVOK 23/14 Q1012 =

METAR EPRA 250700Z NIL=

METAR EPRZ 250700Z 11009KT 080V140 CAVOK 23/13 Q1014 =

METAR EPSC 250700Z 21004KT CAVOK 22/15 Q1012 =

METAR EPSY 250700Z 11005KT 050V170 CAVOK 25/14 Q1016=

METAR EPWA 250700Z 12008KT CAVOK 24/12 Q1015 NOSIG=

METAR EPWR 250700Z VRB02KT CAVOK 24/15 Q1012 =

METAR EPZG 250700Z 06005KT 030V120 CAVOK 24/14 Q1011 =
 METAR EPLB
Lokalizacja:EPLB Lublin
Czas:07:00 UTC
Średni kierunek wiatru:80 °
Średnia prędkość wiatru:6 węzłów
CAVOK:Widzialność 10 km i więcej, zjawisko: NIL, zachmurzenie: NSC
Temperatura powietrza:25 °C
Temperatura punktu rosy:14 °C
Ciśnienie QNH:1016 hPa